sensor_id;sensor_type;location;lat;lon;timestamp;P1;durP1;ratioP1;P2;durP2;ratioP2
36303;SDS011;22335;49.800;8.596;2023-07-20T00:02:07;5.55;;;5.15;;
36303;SDS011;22335;49.800;8.596;2023-07-20T00:08:51;9.30;;;5.70;;
36303;SDS011;22335;49.800;8.596;2023-07-20T00:15:34;5.22;;;4.82;;
36303;SDS011;22335;49.800;8.596;2023-07-20T00:22:20;6.30;;;5.05;;
36303;SDS011;22335;49.800;8.596;2023-07-20T00:29:04;5.82;;;5.43;;
36303;SDS011;22335;49.800;8.596;2023-07-20T00:35:47;5.80;;;5.38;;
36303;SDS011;22335;49.800;8.596;2023-07-20T00:42:32;5.85;;;5.45;;
36303;SDS011;22335;49.800;8.596;2023-07-20T00:56:02;6.20;;;5.60;;
36303;SDS011;22335;49.800;8.596;2023-07-20T01:02:50;6.00;;;5.50;;
36303;SDS011;22335;49.800;8.596;2023-07-20T01:09:38;7.38;;;5.60;;
36303;SDS011;22335;49.800;8.596;2023-07-20T01:16:27;5.97;;;5.40;;
36303;SDS011;22335;49.800;8.596;2023-07-20T01:30:43;6.95;;;6.32;;
36303;SDS011;22335;49.800;8.596;2023-07-20T01:37:35;6.70;;;6.10;;
36303;SDS011;22335;49.800;8.596;2023-07-20T01:44:20;7.10;;;6.57;;
36303;SDS011;22335;49.800;8.596;2023-07-20T01:51:03;8.18;;;6.07;;
36303;SDS011;22335;49.800;8.596;2023-07-20T01:57:49;6.88;;;6.15;;
36303;SDS011;22335;49.800;8.596;2023-07-20T02:04:32;7.15;;;6.57;;
36303;SDS011;22335;49.800;8.596;2023-07-20T02:11:16;7.97;;;6.45;;
36303;SDS011;22335;49.800;8.596;2023-07-20T02:18:02;6.80;;;6.20;;
36303;SDS011;22335;49.800;8.596;2023-07-20T02:24:48;7.07;;;5.80;;
36303;SDS011;22335;49.800;8.596;2023-07-20T02:31:31;7.22;;;6.32;;
36303;SDS011;22335;49.800;8.596;2023-07-20T02:38:16;7.60;;;5.90;;
36303;SDS011;22335;49.800;8.596;2023-07-20T03:00:05;6.68;;;6.07;;
36303;SDS011;22335;49.800;8.596;2023-07-20T03:06:50;6.78;;;6.28;;
36303;SDS011;22335;49.800;8.596;2023-07-20T03:13:34;8.88;;;6.65;;
36303;SDS011;22335;49.800;8.596;2023-07-20T03:20:20;6.93;;;6.32;;
36303;SDS011;22335;49.800;8.596;2023-07-20T03:27:03;7.30;;;6.70;;
36303;SDS011;22335;49.800;8.596;2023-07-20T03:33:47;6.45;;;5.90;;
36303;SDS011;22335;49.800;8.596;2023-07-20T03:40:33;6.97;;;6.40;;
36303;SDS011;22335;49.800;8.596;2023-07-20T03:47:16;7.73;;;6.90;;
36303;SDS011;22335;49.800;8.596;2023-07-20T03:54:00;6.85;;;6.07;;
36303;SDS011;22335;49.800;8.596;2023-07-20T04:00:46;7.05;;;6.43;;
36303;SDS011;22335;49.800;8.596;2023-07-20T04:07:32;6.90;;;6.30;;
36303;SDS011;22335;49.800;8.596;2023-07-20T04:14:15;7.00;;;6.30;;
36303;SDS011;22335;49.800;8.596;2023-07-20T04:21:00;7.25;;;6.60;;
36303;SDS011;22335;49.800;8.596;2023-07-20T04:27:45;7.43;;;6.80;;
36303;SDS011;22335;49.800;8.596;2023-07-20T04:34:30;7.07;;;6.30;;
36303;SDS011;22335;49.800;8.596;2023-07-20T04:41:14;6.45;;;5.85;;
36303;SDS011;22335;49.800;8.596;2023-07-20T04:48:01;6.53;;;6.00;;
36303;SDS011;22335;49.800;8.596;2023-07-20T04:54:47;7.07;;;6.53;;
36303;SDS011;22335;49.800;8.596;2023-07-20T05:01:32;7.10;;;6.40;;
36303;SDS011;22335;49.800;8.596;2023-07-20T05:08:16;7.17;;;6.67;;
36303;SDS011;22335;49.800;8.596;2023-07-20T05:15:01;7.07;;;6.60;;
36303;SDS011;22335;49.800;8.596;2023-07-20T05:21:47;7.65;;;6.40;;
36303;SDS011;22335;49.800;8.596;2023-07-20T05:28:31;7.57;;;6.77;;
36303;SDS011;22335;49.800;8.596;2023-07-20T05:35:15;7.05;;;6.47;;
36303;SDS011;22335;49.800;8.596;2023-07-20T05:42:00;6.88;;;6.30;;
36303;SDS011;22335;49.800;8.596;2023-07-20T05:48:44;7.30;;;6.40;;
36303;SDS011;22335;49.800;8.596;2023-07-20T05:55:27;7.40;;;6.70;;
36303;SDS011;22335;49.800;8.596;2023-07-20T06:02:12;8.45;;;7.03;;
36303;SDS011;22335;49.800;8.596;2023-07-20T06:08:56;7.97;;;6.87;;
36303;SDS011;22335;49.800;8.596;2023-07-20T06:15:39;7.43;;;6.72;;
36303;SDS011;22335;49.800;8.596;2023-07-20T06:22:24;7.30;;;6.70;;
36303;SDS011;22335;49.800;8.596;2023-07-20T06:29:08;8.40;;;6.40;;
36303;SDS011;22335;49.800;8.596;2023-07-20T06:35:52;9.15;;;6.85;;
36303;SDS011;22335;49.800;8.596;2023-07-20T06:42:37;7.93;;;6.40;;
36303;SDS011;22335;49.800;8.596;2023-07-20T06:49:24;6.50;;;5.97;;
36303;SDS011;22335;49.800;8.596;2023-07-20T06:56:08;10.07;;;7.47;;
36303;SDS011;22335;49.800;8.596;2023-07-20T07:02:54;9.05;;;6.15;;
36303;SDS011;22335;49.800;8.596;2023-07-20T07:09:37;6.97;;;6.05;;
36303;SDS011;22335;49.800;8.596;2023-07-20T07:16:21;6.35;;;5.80;;
36303;SDS011;22335;49.800;8.596;2023-07-20T07:23:06;6.35;;;5.95;;
36303;SDS011;22335;49.800;8.596;2023-07-20T07:29:50;6.23;;;5.70;;
36303;SDS011;22335;49.800;8.596;2023-07-20T07:36:33;7.70;;;5.85;;
36303;SDS011;22335;49.800;8.596;2023-07-20T07:43:18;6.75;;;6.13;;
36303;SDS011;22335;49.800;8.596;2023-07-20T07:50:02;8.27;;;6.33;;
36303;SDS011;22335;49.800;8.596;2023-07-20T07:56:46;7.03;;;6.33;;
36303;SDS011;22335;49.800;8.596;2023-07-20T08:03:31;7.47;;;6.05;;
36303;SDS011;22335;49.800;8.596;2023-07-20T08:10:17;8.48;;;5.75;;
36303;SDS011;22335;49.800;8.596;2023-07-20T08:17:00;8.20;;;5.65;;
36303;SDS011;22335;49.800;8.596;2023-07-20T08:23:46;6.30;;;5.70;;
36303;SDS011;22335;49.800;8.596;2023-07-20T08:30:38;5.90;;;5.45;;
36303;SDS011;22335;49.800;8.596;2023-07-20T08:37:24;6.10;;;5.60;;
36303;SDS011;22335;49.800;8.596;2023-07-20T08:44:09;6.80;;;6.20;;
36303;SDS011;22335;49.800;8.596;2023-07-20T08:50:53;5.93;;;5.53;;
36303;SDS011;22335;49.800;8.596;2023-07-20T08:57:38;6.27;;;5.47;;
36303;SDS011;22335;49.800;8.596;2023-07-20T09:04:25;5.90;;;5.50;;
36303;SDS011;22335;49.800;8.596;2023-07-20T09:11:10;5.95;;;5.38;;
36303;SDS011;22335;49.800;8.596;2023-07-20T09:17:56;5.68;;;5.30;;
36303;SDS011;22335;49.800;8.596;2023-07-20T09:24:45;5.38;;;4.90;;
36303;SDS011;22335;49.800;8.596;2023-07-20T09:31:29;5.57;;;5.18;;
36303;SDS011;22335;49.800;8.596;2023-07-20T09:38:20;5.97;;;4.97;;
36303;SDS011;22335;49.800;8.596;2023-07-20T09:45:08;5.43;;;4.90;;
36303;SDS011;22335;49.800;8.596;2023-07-20T09:51:52;5.05;;;4.70;;
36303;SDS011;22335;49.800;8.596;2023-07-20T09:58:38;5.47;;;5.07;;
36303;SDS011;22335;49.800;8.596;2023-07-20T10:05:24;6.40;;;5.28;;
36303;SDS011;22335;49.800;8.596;2023-07-20T10:12:10;5.28;;;4.85;;
36303;SDS011;22335;49.800;8.596;2023-07-20T10:18:59;5.03;;;4.60;;
36303;SDS011;22335;49.800;8.596;2023-07-20T10:25:53;5.82;;;4.97;;
36303;SDS011;22335;49.800;8.596;2023-07-20T10:32:38;5.75;;;5.25;;
36303;SDS011;22335;49.800;8.596;2023-07-20T10:39:24;6.07;;;4.80;;
36303;SDS011;22335;49.800;8.596;2023-07-20T10:46:12;6.43;;;4.88;;
36303;SDS011;22335;49.800;8.596;2023-07-20T10:53:04;5.90;;;4.38;;
36303;SDS011;22335;49.800;8.596;2023-07-20T10:59:53;5.15;;;4.60;;
36303;SDS011;22335;49.800;8.596;2023-07-20T11:06:56;5.03;;;4.63;;
36303;SDS011;22335;49.800;8.596;2023-07-20T11:13:49;5.05;;;4.72;;
36303;SDS011;22335;49.800;8.596;2023-07-20T11:20:39;5.68;;;4.60;;
36303;SDS011;22335;49.800;8.596;2023-07-20T11:27:25;4.90;;;4.50;;
36303;SDS011;22335;49.800;8.596;2023-07-20T11:34:10;5.15;;;4.30;;
36303;SDS011;22335;49.800;8.596;2023-07-20T11:40:55;5.40;;;4.30;;
36303;SDS011;22335;49.800;8.596;2023-07-20T11:47:41;4.60;;;4.20;;
36303;SDS011;22335;49.800;8.596;2023-07-20T11:54:24;4.78;;;4.47;;
36303;SDS011;22335;49.800;8.596;2023-07-20T12:01:08;4.53;;;4.20;;
36303;SDS011;22335;49.800;8.596;2023-07-20T12:07:54;4.40;;;4.10;;
36303;SDS011;22335;49.800;8.596;2023-07-20T12:14:38;4.25;;;3.95;;
36303;SDS011;22335;49.800;8.596;2023-07-20T12:21:21;5.00;;;4.60;;
36303;SDS011;22335;49.800;8.596;2023-07-20T12:28:06;4.93;;;4.55;;
36303;SDS011;22335;49.800;8.596;2023-07-20T12:34:51;4.80;;;4.47;;
36303;SDS011;22335;49.800;8.596;2023-07-20T12:41:34;5.20;;;4.80;;
36303;SDS011;22335;49.800;8.596;2023-07-20T12:48:19;4.85;;;4.50;;
36303;SDS011;22335;49.800;8.596;2023-07-20T13:01:47;4.90;;;4.50;;
36303;SDS011;22335;49.800;8.596;2023-07-20T13:08:32;4.70;;;4.40;;
36303;SDS011;22335;49.800;8.596;2023-07-20T13:15:17;8.00;;;4.68;;
36303;SDS011;22335;49.800;8.596;2023-07-20T13:22:01;4.85;;;4.53;;
36303;SDS011;22335;49.800;8.596;2023-07-20T13:28:46;4.47;;;4.10;;
36303;SDS011;22335;49.800;8.596;2023-07-20T13:35:30;4.95;;;4.53;;
36303;SDS011;22335;49.800;8.596;2023-07-20T13:42:17;4.55;;;4.20;;
36303;SDS011;22335;49.800;8.596;2023-07-20T13:49:03;5.32;;;4.88;;
36303;SDS011;22335;49.800;8.596;2023-07-20T13:55:52;4.72;;;4.43;;
36303;SDS011;22335;49.800;8.596;2023-07-20T14:02:41;4.60;;;4.30;;
36303;SDS011;22335;49.800;8.596;2023-07-20T14:09:29;6.85;;;4.30;;
36303;SDS011;22335;49.800;8.596;2023-07-20T14:16:12;4.63;;;4.30;;
36303;SDS011;22335;49.800;8.596;2023-07-20T14:22:56;4.70;;;4.30;;
36303;SDS011;22335;49.800;8.596;2023-07-20T14:29:41;4.72;;;4.32;;
36303;SDS011;22335;49.800;8.596;2023-07-20T14:36:25;5.75;;;4.40;;
36303;SDS011;22335;49.800;8.596;2023-07-20T14:43:08;5.28;;;4.88;;
36303;SDS011;22335;49.800;8.596;2023-07-20T14:49:53;5.80;;;4.38;;
36303;SDS011;22335;49.800;8.596;2023-07-20T14:56:37;4.60;;;4.20;;
36303;SDS011;22335;49.800;8.596;2023-07-20T15:03:22;4.85;;;4.45;;
36303;SDS011;22335;49.800;8.596;2023-07-20T15:10:07;4.30;;;3.95;;
36303;SDS011;22335;49.800;8.596;2023-07-20T15:16:52;4.88;;;4.30;;
36303;SDS011;22335;49.800;8.596;2023-07-20T15:23:35;4.00;;;3.80;;
36303;SDS011;22335;49.800;8.596;2023-07-20T15:30:21;4.20;;;4.00;;
36303;SDS011;22335;49.800;8.596;2023-07-20T15:37:08;4.53;;;4.18;;
36303;SDS011;22335;49.800;8.596;2023-07-20T15:43:52;4.33;;;3.93;;
36303;SDS011;22335;49.800;8.596;2023-07-20T15:50:37;4.40;;;4.00;;
36303;SDS011;22335;49.800;8.596;2023-07-20T15:57:20;4.95;;;4.45;;
36303;SDS011;22335;49.800;8.596;2023-07-20T16:04:04;4.38;;;4.07;;
36303;SDS011;22335;49.800;8.596;2023-07-20T16:10:49;4.73;;;4.43;;
36303;SDS011;22335;49.800;8.596;2023-07-20T16:17:38;4.40;;;4.10;;
36303;SDS011;22335;49.800;8.596;2023-07-20T16:24:21;4.80;;;4.40;;
36303;SDS011;22335;49.800;8.596;2023-07-20T16:31:10;4.78;;;4.38;;
36303;SDS011;22335;49.800;8.596;2023-07-20T16:37:54;5.30;;;4.30;;
36303;SDS011;22335;49.800;8.596;2023-07-20T16:44:41;4.38;;;4.13;;
36303;SDS011;22335;49.800;8.596;2023-07-20T16:51:28;4.65;;;4.25;;
36303;SDS011;22335;49.800;8.596;2023-07-20T16:58:11;4.28;;;3.97;;
36303;SDS011;22335;49.800;8.596;2023-07-20T17:04:55;7.80;;;4.63;;
36303;SDS011;22335;49.800;8.596;2023-07-20T17:11:40;4.35;;;4.05;;
36303;SDS011;22335;49.800;8.596;2023-07-20T17:18:24;4.60;;;4.10;;
36303;SDS011;22335;49.800;8.596;2023-07-20T17:25:08;4.93;;;4.63;;
36303;SDS011;22335;49.800;8.596;2023-07-20T17:31:57;4.95;;;4.55;;
36303;SDS011;22335;49.800;8.596;2023-07-20T17:45:28;4.68;;;4.07;;
36303;SDS011;22335;49.800;8.596;2023-07-20T17:52:13;4.33;;;3.97;;
36303;SDS011;22335;49.800;8.596;2023-07-20T18:05:40;4.88;;;4.47;;
36303;SDS011;22335;49.800;8.596;2023-07-20T18:12:25;4.40;;;4.18;;
36303;SDS011;22335;49.800;8.596;2023-07-20T18:25:52;4.78;;;4.38;;
36303;SDS011;22335;49.800;8.596;2023-07-20T18:32:37;5.30;;;4.90;;
36303;SDS011;22335;49.800;8.596;2023-07-20T18:46:04;5.22;;;4.72;;
36303;SDS011;22335;49.800;8.596;2023-07-20T18:52:50;5.07;;;4.70;;
36303;SDS011;22335;49.800;8.596;2023-07-20T18:59:33;5.45;;;4.63;;
36303;SDS011;22335;49.800;8.596;2023-07-20T19:06:17;5.13;;;4.82;;
36303;SDS011;22335;49.800;8.596;2023-07-20T19:13:02;5.13;;;4.72;;
36303;SDS011;22335;49.800;8.596;2023-07-20T19:19:46;5.00;;;4.70;;
36303;SDS011;22335;49.800;8.596;2023-07-20T19:26:31;6.05;;;5.50;;
36303;SDS011;22335;49.800;8.596;2023-07-20T19:33:16;5.50;;;4.90;;
36303;SDS011;22335;49.800;8.596;2023-07-20T19:39:59;5.10;;;4.80;;
36303;SDS011;22335;49.800;8.596;2023-07-20T19:46:43;5.90;;;4.82;;
36303;SDS011;22335;49.800;8.596;2023-07-20T19:53:28;6.00;;;5.00;;
36303;SDS011;22335;49.800;8.596;2023-07-20T20:00:13;5.93;;;4.93;;
36303;SDS011;22335;49.800;8.596;2023-07-20T20:06:59;5.45;;;5.10;;
36303;SDS011;22335;49.800;8.596;2023-07-20T20:13:50;5.47;;;4.97;;
36303;SDS011;22335;49.800;8.596;2023-07-20T20:20:34;6.28;;;5.75;;
36303;SDS011;22335;49.800;8.596;2023-07-20T20:27:19;5.90;;;5.17;;
36303;SDS011;22335;49.800;8.596;2023-07-20T20:34:03;9.07;;;4.90;;
36303;SDS011;22335;49.800;8.596;2023-07-20T20:47:33;5.78;;;5.20;;
36303;SDS011;22335;49.800;8.596;2023-07-20T20:54:21;8.00;;;5.70;;
36303;SDS011;22335;49.800;8.596;2023-07-20T21:07:49;6.10;;;5.43;;
36303;SDS011;22335;49.800;8.596;2023-07-20T21:14:34;5.55;;;5.03;;
36303;SDS011;22335;49.800;8.596;2023-07-20T21:21:18;6.57;;;5.50;;
36303;SDS011;22335;49.800;8.596;2023-07-20T21:28:02;5.82;;;5.32;;
36303;SDS011;22335;49.800;8.596;2023-07-20T21:34:47;6.72;;;5.85;;
36303;SDS011;22335;49.800;8.596;2023-07-20T21:41:30;6.78;;;6.22;;
36303;SDS011;22335;49.800;8.596;2023-07-20T21:48:14;7.00;;;5.90;;
36303;SDS011;22335;49.800;8.596;2023-07-20T21:54:59;6.30;;;5.63;;
36303;SDS011;22335;49.800;8.596;2023-07-20T22:01:45;5.78;;;5.30;;
36303;SDS011;22335;49.800;8.596;2023-07-20T22:08:39;5.80;;;5.30;;
36303;SDS011;22335;49.800;8.596;2023-07-20T22:15:24;5.97;;;5.55;;
36303;SDS011;22335;49.800;8.596;2023-07-20T22:22:08;5.82;;;5.30;;
36303;SDS011;22335;49.800;8.596;2023-07-20T22:28:52;5.90;;;5.38;;
36303;SDS011;22335;49.800;8.596;2023-07-20T22:35:37;6.18;;;5.68;;
36303;SDS011;22335;49.800;8.596;2023-07-20T22:42:20;6.90;;;6.30;;
36303;SDS011;22335;49.800;8.596;2023-07-20T22:49:04;5.95;;;5.55;;
36303;SDS011;22335;49.800;8.596;2023-07-20T22:55:49;6.20;;;5.65;;
36303;SDS011;22335;49.800;8.596;2023-07-20T23:02:34;6.07;;;5.57;;
36303;SDS011;22335;49.800;8.596;2023-07-20T23:09:19;6.03;;;5.57;;
36303;SDS011;22335;49.800;8.596;2023-07-20T23:16:04;5.97;;;5.55;;
36303;SDS011;22335;49.800;8.596;2023-07-20T23:22:50;5.72;;;5.43;;
36303;SDS011;22335;49.800;8.596;2023-07-20T23:29:33;6.43;;;6.00;;
36303;SDS011;22335;49.800;8.596;2023-07-20T23:36:18;6.85;;;5.90;;
36303;SDS011;22335;49.800;8.596;2023-07-20T23:43:02;6.15;;;5.75;;
36303;SDS011;22335;49.800;8.596;2023-07-20T23:49:46;6.10;;;5.65;;
36303;SDS011;22335;49.800;8.596;2023-07-20T23:56:31;6.00;;;5.60;;
